CheckWX is a tool to help pilots better visualize weather data.  It is not intended as a substitute for an official pre-flight weather briefing.

08:24:29 UTC

KSLK METAR
Adirondack Regional Airport
Saranac Lake, New York, USA
Current

13 mins ago

KSLK 220811Z AUTO 28004KT 8SM -SN SCT017 BKN030 OVC039 M04/M07 A3011 RMK AO2 SNB0758 P0000 T10441067
Observed
Feb-22 @ 08:11 UTC
Wind
  • 280° at 4 KTS
Visibility
8 SM
Flight Rules
MVFR
Conditions
Light Snow
Cloud Levels
  • Scattered at 1,700' AGL
  • Broken at 3,000' AGL
  • Overcast at 3,900' AGL
Temperature
-4°C / 25°F
Dewpoint
-7°C / 19°F
Humidity
80%
Altimeter
30.11" Hg
Pressure
1019.62 hPa
Current Rain
0.01"
Previous

33 mins ago

KSLK 220751Z AUTO VRB04KT 9SM SCT019 BKN026 OVC038 M04/M06 A3010 RMK AO2 SNE51 SLP215 P0000 T10391061
Observed
Feb-22 @ 07:51 UTC
Wind
  • Variable at 4 KTS
Visibility
9 SM
Flight Rules
MVFR
Cloud Levels
  • Scattered at 1,900' AGL
  • Broken at 2,600' AGL
  • Overcast at 3,800' AGL
Temperature
-4°C / 25°F
Dewpoint
-6°C / 21°F
Humidity
86%
Altimeter
30.1" Hg
Pressure
1021.5 hPa
Current Rain
0.01"
Previous

53 mins ago

KSLK 220731Z AUTO VRB03KT 5SM -SN BR BKN015 OVC023 M04/M06 A3010 RMK AO2 P0000 T10391056
Observed
Feb-22 @ 07:31 UTC
Wind
  • Variable at 3 KTS
Visibility
5 SM
Flight Rules
MVFR
Conditions
Light Snow, Mist
Cloud Levels
  • Broken at 1,500' AGL
  • Overcast at 2,300' AGL
Temperature
-4°C / 25°F
Dewpoint
-6°C / 21°F
Humidity
86%
Altimeter
30.1" Hg
Pressure
1019.32 hPa
Current Rain
0.01"